Dades meteomassalio
Diari Summary for Noviembre 8, 2017 Units:  English    Metric   Both
« Previous Day
Next Day »
Diari Semanal Mensual Anual Personalitzat
  Maxima: Minima: Mijana:
Temperatura: TemperatureC °F 6.1 °F 10.4 °F
Rosada: DewpointC °F 1.8 °F 3.8 °F
Humitat: Humidity % 50 % 64 %
Velocitat del vent: WindSpeedKMH mph 5.6 mph 31.2 mph
Racha vent: WindSpeedGustKMH mph - -
Vent:- - NW
Pressio: PressurehPa in 1021.6 in -
Pluja: 0.0 in    
Historical Graphs
 
 
Tabular Data for Noviembre 8, 2017
Time Temperature Dew Point Pressure Wind Wind Speed Wind Gust Humidity Rainfall Rate (Hourly) solar Conditions
TemperatureC °F DewpointC °F PressurehPa in Calm     Humidity % HourlyPrecipMM in SolarRadiationWatts/m^2 W/m2 Conditions
00:02 10.6 °F 2.6 °F 1021.9 in NW 29.6 mph 29.6 mph 58 % 0.0 in 0.0 W/m2 CLR
00:07 10.6 °F 2.9 °F 1021.6 in NW 42.6 mph 42.6 mph 59 % 0.0 in 0.0 W/m2 CLR
00:12 10.6 °F 2.9 °F 1021.9 in NW 37.0 mph 37.0 mph 59 % 0.0 in 0.0 W/m2 CLR
00:17 10.6 °F 3.1 °F 1021.9 in NNW 37.0 mph 37.0 mph 60 % 0.0 in 0.0 W/m2 CLR
00:22 10.6 °F 3.1 °F 1021.9 in NW 35.4 mph 35.4 mph 60 % 0.0 in 0.0 W/m2 CLR
00:27 10.6 °F 3.3 °F 1021.9 in NNW 42.6 mph 42.6 mph 61 % 0.0 in 0.0 W/m2 CLR
00:37 10.6 °F 3.3 °F 1021.9 in NW 40.7 mph 40.7 mph 61 % 0.0 in 0.0 W/m2 CLR
00:42 10.6 °F 3.6 °F 1021.9 in NW 40.7 mph 40.7 mph 62 % 0.0 in 0.0 W/m2 CLR
00:47 10.6 °F 3.6 °F 1021.9 in NNW 33.3 mph 33.3 mph 62 % 0.0 in 0.0 W/m2 CLR
00:52 10.6 °F 3.8 °F 1021.9 in NNW 31.5 mph 31.5 mph 63 % 0.0 in 0.0 W/m2 CLR
00:57 10.6 °F 3.8 °F 1021.9 in NW 35.4 mph 35.4 mph 63 % 0.0 in 0.0 W/m2 CLR
01:02 10.6 °F 4.0 °F 1021.9 in NNW 40.7 mph 40.7 mph 64 % 0.0 in 0.0 W/m2 CLR
01:07 10.6 °F 4.2 °F 1021.9 in WNW 38.9 mph 38.9 mph 65 % 0.0 in 0.0 W/m2 CLR
01:12 10.6 °F 4.2 °F 1022.2 in NNW 35.2 mph 35.2 mph 65 % 0.0 in 0.0 W/m2 CLR
01:17 10.6 °F 4.2 °F 1022.2 in WNW 31.5 mph 31.5 mph 65 % 0.0 in 0.0 W/m2 CLR
01:22 10.6 °F 4.4 °F 1021.9 in NNW 38.6 mph 38.6 mph 66 % 0.0 in 0.0 W/m2 CLR
01:28 10.6 °F 4.4 °F 1021.9 in NNW 31.5 mph 31.5 mph 66 % 0.0 in 0.0 W/m2 CLR
01:38 10.6 °F 4.7 °F 1021.9 in NW 42.6 mph 42.6 mph 67 % 0.0 in 0.0 W/m2 CLR
01:43 11.1 °F 5.0 °F 1022.2 in NW 42.6 mph 42.6 mph 66 % 0.0 in 0.0 W/m2 CLR
01:48 11.1 °F 5.2 °F 1022.2 in NW 32.2 mph 32.2 mph 67 % 0.0 in 0.0 W/m2 CLR
01:53 10.6 °F 4.7 °F 1022.2 in NNW 29.6 mph 29.6 mph 67 % 0.0 in 0.0 W/m2 CLR
01:58 10.6 °F 4.9 °F 1022.2 in NW 29.6 mph 29.6 mph 68 % 0.0 in 0.0 W/m2 CLR
02:03 10.6 °F 4.9 °F 1022.2 in NW 31.5 mph 31.5 mph 68 % 0.0 in 0.0 W/m2 CLR
02:08 11.1 °F 5.4 °F 1022.2 in NNW 38.9 mph 38.9 mph 68 % 0.0 in 0.0 W/m2 CLR
02:13 11.1 °F 5.4 °F 1022.2 in NW 33.3 mph 33.3 mph 68 % 0.0 in 0.0 W/m2 CLR
02:18 11.1 °F 5.4 °F 1022.6 in NNW 25.9 mph 25.9 mph 68 % 0.0 in 0.0 W/m2 CLR
02:23 11.1 °F 5.4 °F 1022.6 in NW 31.5 mph 31.5 mph 68 % 0.0 in 0.0 W/m2 CLR
02:28 11.1 °F 5.6 °F 1022.6 in NW 31.5 mph 31.5 mph 69 % 0.0 in 0.0 W/m2 CLR
02:33 11.1 °F 5.6 °F 1022.6 in WNW 29.6 mph 29.6 mph 69 % 0.0 in 0.0 W/m2 CLR
02:38 11.1 °F 5.6 °F 1022.6 in NNW 31.5 mph 31.5 mph 69 % 0.0 in 0.0 W/m2 CLR
02:43 11.1 °F 5.6 °F 1022.6 in NW 24.1 mph 24.1 mph 69 % 0.0 in 0.0 W/m2 CLR
02:48 11.1 °F 5.6 °F 1022.6 in NW 31.5 mph 31.5 mph 69 % 0.0 in 0.0 W/m2 CLR
02:53 11.1 °F 5.6 °F 1022.6 in NW 22.2 mph 22.2 mph 69 % 0.0 in 0.0 W/m2 CLR
02:58 11.1 °F 5.8 °F 1022.9 in NW 18.5 mph 18.5 mph 70 % 0.0 in 0.0 W/m2 CLR
03:08 11.1 °F 5.8 °F 1022.9 in NNW 29.6 mph 29.6 mph 70 % 0.0 in 0.0 W/m2 CLR
03:13 11.1 °F 6.1 °F 1022.9 in NNW 27.8 mph 27.8 mph 71 % 0.0 in 0.0 W/m2 CLR
03:18 11.1 °F 6.1 °F 1022.6 in NW 22.2 mph 22.2 mph 71 % 0.0 in 0.0 W/m2 CLR
03:23 11.1 °F 6.1 °F 1022.6 in WNW 24.1 mph 24.1 mph 71 % 0.0 in 0.0 W/m2 CLR
03:28 11.1 °F 6.1 °F 1022.6 in NW 20.9 mph 20.9 mph 71 % 0.0 in 0.0 W/m2 CLR
03:38 10.6 °F 5.7 °F 1022.9 in NW 31.5 mph 31.5 mph 72 % 0.0 in 0.0 W/m2 CLR
03:48 10.6 °F 5.7 °F 1022.9 in NW 25.9 mph 25.9 mph 72 % 0.0 in 0.0 W/m2 CLR
03:53 10.6 °F 5.5 °F 1022.9 in NNW 27.8 mph 27.8 mph 71 % 0.0 in 0.0 W/m2 CLR
03:58 10.6 °F 5.5 °F 1022.6 in NNW 29.6 mph 29.6 mph 71 % 0.0 in 0.0 W/m2 CLR
04:03 10.6 °F 5.5 °F 1022.6 in North 37.0 mph 37.0 mph 71 % 0.0 in 0.0 W/m2 CLR
04:08 10.6 °F 5.5 °F 1022.6 in North 29.6 mph 29.6 mph 71 % 0.0 in 0.0 W/m2 CLR
04:14 10.6 °F 5.5 °F 1022.6 in NW 25.9 mph 25.9 mph 71 % 0.0 in 0.0 W/m2 CLR
04:19 10.6 °F 5.5 °F 1022.9 in NNW 25.9 mph 25.9 mph 71 % 0.0 in 0.0 W/m2 CLR
04:20 10.6 °F 5.5 °F 1022.9 in WNW 25.9 mph 25.9 mph 71 % 0.0 in 0.0 W/m2 CLR
04:21 10.6 °F 5.5 °F 1022.9 in NW 24.1 mph 24.1 mph 71 % 0.0 in 0.0 W/m2 CLR
04:26 10.6 °F 5.5 °F 1022.9 in NNW 20.9 mph 20.9 mph 71 % 0.0 in 0.0 W/m2 CLR
04:31 10.6 °F 5.5 °F 1022.9 in North 19.3 mph 19.3 mph 71 % 0.0 in 0.0 W/m2 CLR
04:36 10.6 °F 5.5 °F 1022.9 in NNW 22.2 mph 22.2 mph 71 % 0.0 in 0.0 W/m2 CLR
04:46 10.0 °F 5.2 °F 1022.9 in NW 13.0 mph 13.0 mph 72 % 0.0 in 0.0 W/m2 CLR
04:51 10.0 °F 5.2 °F 1022.9 in NNW 13.0 mph 13.0 mph 72 % 0.0 in 0.0 W/m2 CLR
04:56 10.0 °F 5.2 °F 1022.9 in NW 13.0 mph 13.0 mph 72 % 0.0 in 0.0 W/m2 CLR
05:01 10.0 °F 5.0 °F 1022.9 in NNW 16.7 mph 16.7 mph 71 % 0.0 in 0.0 W/m2 CLR
05:06 10.0 °F 5.0 °F 1022.9 in NNW 18.5 mph 18.5 mph 71 % 0.0 in 0.0 W/m2 CLR
05:11 10.0 °F 4.8 °F 1022.9 in NW 18.5 mph 18.5 mph 70 % 0.0 in 0.0 W/m2 CLR
05:16 10.0 °F 4.6 °F 1022.9 in NNW 18.5 mph 18.5 mph 69 % 0.0 in 0.0 W/m2 CLR
05:21 10.0 °F 4.6 °F 1022.9 in ESE 18.5 mph 18.5 mph 69 % 0.0 in 0.0 W/m2 CLR
05:26 10.0 °F 4.3 °F 1022.9 in NW 5.6 mph   68 % 0.0 in 0.0 W/m2 CLR
05:31 10.0 °F 4.2 °F 1022.9 in NNW 22.2 mph 22.2 mph 67 % 0.0 in 0.0 W/m2 CLR
05:36 10.0 °F 4.2 °F 1022.9 in WNW 18.5 mph 18.5 mph 67 % 0.0 in 0.0 W/m2 CLR
05:37 10.0 °F 3.9 °F 1022.9 in NNW 24.1 mph 24.1 mph 66 % 0.0 in 0.0 W/m2 CLR
05:42 10.0 °F 3.9 °F 1022.9 in NNW 24.1 mph 24.1 mph 66 % 0.0 in 0.0 W/m2 CLR
05:47 10.6 °F 4.2 °F 1022.9 in North 16.7 mph 16.7 mph 65 % 0.0 in 0.0 W/m2 CLR
05:52 10.6 °F 4.2 °F 1022.9 in North 18.5 mph 18.5 mph 65 % 0.0 in 0.0 W/m2 CLR
05:57 10.0 °F 3.7 °F 1022.9 in NW 18.5 mph 18.5 mph 65 % 0.0 in 0.0 W/m2 CLR
06:02 10.0 °F 3.7 °F 1022.9 in North 18.5 mph 18.5 mph 65 % 0.0 in 0.0 W/m2 CLR
06:07 9.4 °F 3.2 °F 1022.9 in NW 20.4 mph 20.4 mph 65 % 0.0 in 0.0 W/m2 CLR
06:12 9.4 °F 3.4 °F 1022.9 in NNW 13.0 mph 13.0 mph 66 % 0.0 in 0.0 W/m2 CLR
06:17 9.4 °F 3.4 °F 1022.9 in WNW 14.8 mph 14.8 mph 66 % 0.0 in 0.0 W/m2 CLR
06:22 9.4 °F 3.4 °F 1022.9 in West 25.7 mph 25.7 mph 66 % 0.0 in 0.0 W/m2 CLR
06:27 9.4 °F 3.6 °F 1022.9 in NW 24.1 mph 24.1 mph 67 % 0.0 in 0.0 W/m2 CLR
06:32 9.4 °F 3.8 °F 1023.2 in NW 24.1 mph 24.1 mph 68 % 0.0 in 0.0 W/m2 CLR
06:37 9.4 °F 3.8 °F 1023.2 in NW 24.1 mph 24.1 mph 68 % 0.0 in 0.0 W/m2 CLR
06:42 9.4 °F 3.8 °F 1022.9 in NNW 24.1 mph 24.1 mph 68 % 0.0 in 0.0 W/m2 CLR
06:43 9.4 °F 3.8 °F 1022.9 in NW 24.1 mph 24.1 mph 68 % 0.0 in 0.0 W/m2 CLR
06:48 9.4 °F 4.1 °F 1022.9 in NW 22.2 mph 22.2 mph 69 % 0.0 in 0.0 W/m2 CLR
06:53 9.4 °F 4.1 °F 1022.9 in NW 27.8 mph 27.8 mph 69 % 0.0 in 0.0 W/m2 CLR
06:58 9.4 °F 4.1 °F 1022.9 in WNW 22.5 mph 22.5 mph 69 % 0.0 in 0.0 W/m2 CLR
07:03 9.4 °F 4.1 °F 1022.9 in WNW 29.0 mph 29.0 mph 69 % 0.0 in 0.0 W/m2 CLR
07:08 9.4 °F 4.1 °F 1022.9 in NW 29.6 mph 29.6 mph 69 % 0.0 in 0.0 W/m2 CLR
07:13 9.4 °F 4.1 °F 1022.9 in NNW 37.0 mph 37.0 mph 69 % 0.0 in 0.0 W/m2 CLR
07:18 9.4 °F 4.1 °F 1022.9 in NW 40.7 mph 40.7 mph 69 % 0.0 in 0.0 W/m2 CLR
07:23 9.4 °F 4.1 °F 1023.2 in NW 30.6 mph 30.6 mph 69 % 0.0 in 0.0 W/m2 CLR
07:28 9.4 °F 4.1 °F 1023.2 in NW 27.8 mph 27.8 mph 69 % 0.0 in 0.0 W/m2 CLR
07:33 9.4 °F 4.1 °F 1023.2 in NW 24.1 mph 24.1 mph 69 % 0.0 in 0.0 W/m2 OVC
07:38 9.4 °F 4.2 °F 1023.2 in NW 29.6 mph 29.6 mph 70 % 0.0 in 0.0 W/m2 OVC
07:43 9.4 °F 4.2 °F 1023.2 in NW 25.9 mph 25.9 mph 70 % 0.0 in 7.0 W/m2 OVC
07:48 9.4 °F 4.2 °F 1023.2 in WNW 25.9 mph 25.9 mph 70 % 0.0 in 7.0 W/m2 OVC
07:53 9.4 °F 4.2 °F 1023.6 in NNW 37.0 mph 37.0 mph 70 % 0.0 in 11.0 W/m2 OVC
07:58 9.4 °F 4.2 °F 1023.6 in NW 42.6 mph 42.6 mph 70 % 0.0 in 14.0 W/m2 OVC
08:03 9.4 °F 4.2 °F 1023.6 in NW 31.5 mph 31.5 mph 70 % 0.0 in 16.0 W/m2 OVC
08:08 8.9 °F 3.7 °F 1023.6 in NW 24.1 mph 24.1 mph 70 % 0.0 in 21.0 W/m2 OVC
08:13 9.4 °F 4.1 °F 1023.6 in NW 31.5 mph 31.5 mph 69 % 0.0 in 28.0 W/m2 OVC
08:18 9.4 °F 4.1 °F 1023.6 in NW 24.1 mph 24.1 mph 69 % 0.0 in 32.0 W/m2 OVC
08:23 9.4 °F 4.1 °F 1023.9 in WNW 25.9 mph 25.9 mph 69 % 0.0 in 16.0 W/m2 OVC
08:28 9.4 °F 4.1 °F 1023.9 in NW 24.1 mph 24.1 mph 69 % 0.0 in 16.0 W/m2 OVC
08:33 9.4 °F 4.2 °F 1024.3 in NNW 24.1 mph 24.1 mph 70 % 0.0 in 18.0 W/m2 OVC
08:43 8.9 °F 3.7 °F 1024.3 in NW 24.1 mph 24.1 mph 70 % 0.0 in 21.0 W/m2 BKN
08:48 8.9 °F 3.7 °F 1024.3 in NW 22.5 mph 22.5 mph 70 % 0.0 in 81.0 W/m2 BKN
08:53 9.4 °F 4.2 °F 1024.3 in NNW 25.9 mph 25.9 mph 70 % 0.0 in 128.0 W/m2 SCT
08:58 9.4 °F 4.2 °F 1024.3 in North 31.5 mph 31.5 mph 70 % 0.0 in 144.0 W/m2 CLR
09:03 10.0 °F 4.6 °F 1024.3 in WNW 29.6 mph 29.6 mph 69 % 0.0 in 171.0 W/m2 CLR
09:08 10.0 °F 4.3 °F 1024.3 in NW 53.7 mph 53.7 mph 68 % 0.0 in 137.0 W/m2 CLR
09:13 10.0 °F 4.3 °F 1024.3 in NNW 42.6 mph 42.6 mph 68 % 0.0 in 104.0 W/m2 CLR
09:18 10.6 °F 4.7 °F 1024.3 in NW 44.4 mph 44.4 mph 67 % 0.0 in 167.0 W/m2 CLR
09:23 10.6 °F 4.7 °F 1024.3 in NW 29.6 mph 29.6 mph 67 % 0.0 in 232.0 W/m2 CLR
09:28 10.6 °F 4.7 °F 1024.3 in NW 33.3 mph 33.3 mph 67 % 0.0 in 250.0 W/m2 CLR
09:33 10.6 °F 4.4 °F 1024.6 in NW 35.2 mph 35.2 mph 66 % 0.0 in 262.0 W/m2 CLR
09:38 10.6 °F 4.2 °F 1024.6 in NNW 31.5 mph 31.5 mph 65 % 0.0 in 276.0 W/m2 CLR
09:43 10.6 °F 4.2 °F 1024.3 in NW 31.5 mph 31.5 mph 65 % 0.0 in 285.0 W/m2 CLR
09:48 11.1 °F 4.6 °F 1024.6 in NNW 30.6 mph 30.6 mph 64 % 0.0 in 304.0 W/m2 CLR
09:53 11.1 °F 4.3 °F 1024.3 in NW 37.0 mph 37.0 mph 63 % 0.0 in 316.0 W/m2 CLR
09:58 11.1 °F 4.1 °F 1024.3 in NNW 37.0 mph 37.0 mph 62 % 0.0 in 329.0 W/m2 CLR
10:03 11.1 °F 4.1 °F 1024.6 in NNW 33.3 mph 33.3 mph 62 % 0.0 in 338.0 W/m2 CLR
10:08 11.1 °F 4.1 °F 1024.3 in North 31.5 mph 31.5 mph 62 % 0.0 in 355.0 W/m2 CLR
10:13 11.7 °F 4.4 °F 1024.6 in NW 40.7 mph 40.7 mph 61 % 0.0 in 369.0 W/m2 CLR
10:18 11.7 °F 4.2 °F 1024.3 in NNW 31.5 mph 31.5 mph 60 % 0.0 in 401.0 W/m2 CLR
10:23 11.7 °F 4.2 °F 1024.3 in NW 27.8 mph 27.8 mph 60 % 0.0 in 353.0 W/m2 CLR
10:28 12.2 °F 4.4 °F 1024.3 in NW 37.0 mph 37.0 mph 59 % 0.0 in 394.0 W/m2 CLR
10:33 12.2 °F 4.2 °F 1024.3 in NW 33.3 mph 33.3 mph 58 % 0.0 in 410.0 W/m2 CLR
10:38 12.2 °F 4.2 °F 1024.6 in North 31.5 mph 31.5 mph 58 % 0.0 in 427.0 W/m2 CLR
10:44 12.2 °F 3.9 °F 1024.3 in North 38.6 mph 38.6 mph 57 % 0.0 in 422.0 W/m2 CLR
10:49 12.2 °F 3.9 °F 1024.6 in NNW 35.2 mph 35.2 mph 57 % 0.0 in 427.0 W/m2 CLR
10:54 12.2 °F 3.7 °F 1024.6 in North 46.7 mph 46.7 mph 56 % 0.0 in 431.0 W/m2 CLR
10:59 12.2 °F 3.9 °F 1024.6 in North 31.5 mph 31.5 mph 57 % 0.0 in 445.0 W/m2 CLR
11:04 12.2 °F 3.7 °F 1024.6 in North 44.4 mph 44.4 mph 56 % 0.0 in 459.0 W/m2 CLR
11:09 12.8 °F 4.2 °F 1024.6 in North 46.3 mph 46.3 mph 56 % 0.0 in 466.0 W/m2 CLR
11:14 12.8 °F 4.2 °F 1024.3 in NNW 48.1 mph 48.1 mph 56 % 0.0 in 473.0 W/m2 CLR
11:19 12.8 °F 4.2 °F 1024.3 in NNW 37.0 mph 37.0 mph 56 % 0.0 in 482.0 W/m2 CLR
11:24 13.3 °F 4.5 °F 1024.3 in NNW 42.6 mph 42.6 mph 55 % 0.0 in 489.0 W/m2 CLR
11:29 13.3 °F 4.5 °F 1024.6 in North 46.3 mph 46.3 mph 55 % 0.0 in 492.0 W/m2 CLR
11:34 13.3 °F 4.5 °F 1024.3 in NNW 42.6 mph 42.6 mph 55 % 0.0 in 496.0 W/m2 CLR
11:39 13.3 °F 4.5 °F 1024.3 in North 44.4 mph 44.4 mph 55 % 0.0 in 501.0 W/m2 CLR
11:44 13.3 °F 4.5 °F 1024.3 in NNW 42.6 mph 42.6 mph 55 % 0.0 in 519.0 W/m2 CLR
11:49 13.3 °F 4.5 °F 1024.3 in NW 35.2 mph 35.2 mph 55 % 0.0 in 573.0 W/m2 CLR
11:54 12.8 °F 3.9 °F 1024.3 in North 42.6 mph 42.6 mph 55 % 0.0 in 181.0 W/m2 CLR
11:59 12.8 °F 4.2 °F 1024.3 in NNE 27.8 mph 27.8 mph 56 % 0.0 in 555.0 W/m2 CLR
12:04 13.3 °F 4.5 °F 1024.3 in NNW 31.5 mph 31.5 mph 55 % 0.0 in 552.0 W/m2 CLR
12:09 13.3 °F 4.2 °F 1024.3 in North 42.6 mph 42.6 mph 54 % 0.0 in 547.0 W/m2 CLR
12:14 13.3 °F 4.5 °F 1023.9 in NNW 33.3 mph 33.3 mph 55 % 0.0 in 536.0 W/m2 CLR
12:19 13.3 °F 4.2 °F 1023.9 in North 42.6 mph 42.6 mph 54 % 0.0 in 536.0 W/m2 CLR
12:24 13.9 °F 5.0 °F 1023.9 in NNW 33.3 mph 33.3 mph 55 % 0.0 in 540.0 W/m2 CLR
12:29 13.9 °F 4.7 °F 1023.6 in NNW 51.8 mph 51.8 mph 54 % 0.0 in 540.0 W/m2 CLR
12:34 13.9 °F 4.7 °F 1023.6 in NW 35.4 mph 35.4 mph 54 % 0.0 in 543.0 W/m2 CLR
12:39 13.9 °F 4.7 °F 1023.6 in NNW 35.2 mph 35.2 mph 54 % 0.0 in 526.0 W/m2 CLR
12:44 13.9 °F 4.2 °F 1023.6 in North 42.6 mph 42.6 mph 52 % 0.0 in 508.0 W/m2 CLR
12:49 13.9 °F 4.4 °F 1023.9 in North 49.9 mph 49.9 mph 53 % 0.0 in 526.0 W/m2 CLR
12:54 13.9 °F 4.2 °F 1023.6 in NNW 42.6 mph 42.6 mph 52 % 0.0 in 536.0 W/m2 CLR
12:59 13.9 °F 4.4 °F 1023.6 in North 40.7 mph 40.7 mph 53 % 0.0 in 541.0 W/m2 CLR
13:04 13.9 °F 4.2 °F 1023.2 in North 37.0 mph 37.0 mph 52 % 0.0 in 538.0 W/m2 CLR
13:09 13.9 °F 3.9 °F 1023.6 in NNW 44.4 mph 44.4 mph 51 % 0.0 in 543.0 W/m2 CLR
13:14 14.4 °F 4.4 °F 1023.6 in North 42.6 mph 42.6 mph 51 % 0.0 in 540.0 W/m2 CLR
13:19 13.9 °F 4.2 °F 1023.6 in NNW 44.4 mph 44.4 mph 52 % 0.0 in 540.0 W/m2 CLR
13:24 14.4 °F 4.4 °F 1023.2 in North 37.0 mph 37.0 mph 51 % 0.0 in 557.0 W/m2 CLR
13:29 13.9 °F 3.6 °F 1023.2 in North 55.5 mph 55.5 mph 50 % 0.0 in 559.0 W/m2 CLR
13:34 14.4 °F 4.4 °F 1023.2 in NW 38.9 mph 38.9 mph 51 % 0.0 in 596.0 W/m2 CLR
13:39 14.4 °F 4.4 °F 1023.2 in NNW 51.8 mph 51.8 mph 51 % 0.0 in 608.0 W/m2 CLR
13:44 14.4 °F 4.7 °F 1023.2 in North 37.0 mph 37.0 mph 52 % 0.0 in 640.0 W/m2 CLR
13:49 14.4 °F 4.2 °F 1023.2 in NNE 42.6 mph 42.6 mph 50 % 0.0 in 640.0 W/m2 CLR
13:59 14.4 °F 4.2 °F 1023.2 in NNW 37.0 mph 37.0 mph 50 % 0.0 in 664.0 W/m2 CLR
14:04 14.4 °F 4.2 °F 1023.2 in NW 43.4 mph 43.4 mph 50 % 0.0 in 628.0 W/m2 CLR
14:09 14.4 °F 4.2 °F 1023.2 in NNW 44.4 mph 44.4 mph 50 % 0.0 in 659.0 W/m2 CLR
14:14 15.0 °F 4.7 °F 1022.9 in North 40.7 mph 40.7 mph 50 % 0.0 in 508.0 W/m2 CLR
14:19 14.4 °F 4.2 °F 1023.2 in North 38.6 mph 38.6 mph 50 % 0.0 in 584.0 W/m2 CLR
14:24 13.9 °F 3.9 °F 1023.2 in NNW 46.3 mph 46.3 mph 51 % 0.0 in 376.0 W/m2 CLR
14:29 13.9 °F 4.2 °F 1023.2 in NNW 50.0 mph 50.0 mph 52 % 0.0 in 352.0 W/m2 CLR
14:34 13.9 °F 4.2 °F 1023.2 in NNW 53.7 mph 53.7 mph 52 % 0.0 in 429.0 W/m2 CLR
14:44 13.9 °F 4.4 °F 1023.2 in North 33.3 mph 33.3 mph 53 % 0.0 in 390.0 W/m2 CLR
14:49 13.9 °F 4.2 °F 1023.2 in NW 33.3 mph 33.3 mph 52 % 0.0 in 422.0 W/m2 CLR
14:54 13.9 °F 4.2 °F 1023.2 in NW 33.8 mph 33.8 mph 52 % 0.0 in 281.0 W/m2 CLR
14:59 13.3 °F 3.7 °F 1023.2 in North 33.8 mph 33.8 mph 52 % 0.0 in 332.0 W/m2 CLR
15:04 13.3 °F 3.7 °F 1023.2 in NNW 37.0 mph 37.0 mph 52 % 0.0 in 278.0 W/m2 CLR
15:14 12.8 °F 3.4 °F 1023.6 in North 43.4 mph 43.4 mph 53 % 0.0 in 214.0 W/m2 CLR
15:24 12.8 °F 3.7 °F 1023.2 in NW 27.8 mph 27.8 mph 54 % 0.0 in 188.0 W/m2 CLR
15:29 12.8 °F 3.7 °F 1023.2 in NW 33.3 mph 33.3 mph 54 % 0.0 in 178.0 W/m2 CLR
15:34 12.2 °F 3.2 °F 1023.2 in NNW 40.7 mph 40.7 mph 54 % 0.0 in 163.0 W/m2 CLR
15:39 12.2 °F 3.4 °F 1023.2 in NNW 38.9 mph 38.9 mph 55 % 0.0 in 160.0 W/m2 CLR
15:44 12.2 °F 3.4 °F 1023.2 in WNW 35.2 mph 35.2 mph 55 % 0.0 in 160.0 W/m2 CLR
15:49 12.2 °F 3.4 °F 1023.2 in NNW 33.3 mph 33.3 mph 55 % 0.0 in 144.0 W/m2 CLR
15:54 12.2 °F 3.4 °F 1023.2 in North 31.5 mph 31.5 mph 55 % 0.0 in 132.0 W/m2 CLR
15:59 12.2 °F 3.4 °F 1023.2 in North 25.9 mph 25.9 mph 55 % 0.0 in 121.0 W/m2 CLR
16:04 12.2 °F 3.4 °F 1023.2 in NNW 33.3 mph 33.3 mph 55 % 0.0 in 118.0 W/m2 CLR
16:09 11.7 °F 3.2 °F 1023.2 in NW 31.5 mph 31.5 mph 56 % 0.0 in 105.0 W/m2 CLR
16:14 11.7 °F 3.2 °F 1023.2 in NW 27.8 mph 27.8 mph 56 % 0.0 in 102.0 W/m2 CLR
16:19 11.7 °F 2.9 °F 1023.6 in North 31.5 mph 31.5 mph 55 % 0.0 in 100.0 W/m2 CLR
16:24 11.7 °F 2.9 °F 1023.6 in NNW 38.9 mph 38.9 mph 55 % 0.0 in 95.0 W/m2 CLR
16:29 11.7 °F 2.9 °F 1023.6 in North 41.8 mph 41.8 mph 55 % 0.0 in 86.0 W/m2 CLR
16:34 11.7 °F 2.9 °F 1023.6 in NNW 25.9 mph 25.9 mph 55 % 0.0 in 72.0 W/m2 CLR
16:39 11.7 °F 3.2 °F 1023.9 in NNW 35.2 mph 35.2 mph 56 % 0.0 in 63.0 W/m2 FEW
16:44 11.7 °F 3.2 °F 1023.9 in North 27.8 mph 27.8 mph 56 % 0.0 in 54.0 W/m2 SCT
16:49 11.1 °F 2.7 °F 1023.9 in NNW 31.5 mph 31.5 mph 56 % 0.0 in 53.0 W/m2 SCT
16:54 11.1 °F 2.9 °F 1023.9 in NNW 18.5 mph 18.5 mph 57 % 0.0 in 49.0 W/m2 SCT
16:59 11.1 °F 2.9 °F 1023.9 in North 22.2 mph 22.2 mph 57 % 0.0 in 42.0 W/m2 BKN
17:04 11.1 °F 2.9 °F 1023.9 in NNW 35.4 mph 35.4 mph 57 % 0.0 in 37.0 W/m2 BKN
17:09 11.1 °F 3.2 °F 1023.9 in NNW 38.6 mph 38.6 mph 58 % 0.0 in 32.0 W/m2 BKN
17:14 11.1 °F 3.2 °F 1023.9 in NNW 31.5 mph 31.5 mph 58 % 0.0 in 28.0 W/m2 BKN
17:19 11.1 °F 3.2 °F 1023.9 in NNW 29.6 mph 29.6 mph 58 % 0.0 in 26.0 W/m2 BKN
17:24 11.1 °F 3.2 °F 1023.9 in North 25.9 mph 25.9 mph 58 % 0.0 in 23.0 W/m2 BKN
17:29 11.1 °F 3.4 °F 1023.9 in NNW 18.5 mph 18.5 mph 59 % 0.0 in 16.0 W/m2 BKN
17:34 11.1 °F 3.4 °F 1023.9 in North 20.4 mph 20.4 mph 59 % 0.0 in 12.0 W/m2 BKN
17:39 10.6 °F 2.9 °F 1023.9 in NW 20.9 mph 20.9 mph 59 % 0.0 in 9.0 W/m2 BKN
17:44 10.6 °F 2.9 °F 1023.9 in NW 18.5 mph 18.5 mph 59 % 0.0 in 5.0 W/m2 OVC
17:49 10.6 °F 2.9 °F 1023.9 in NW 31.5 mph 31.5 mph 59 % 0.0 in 0.0 W/m2 OVC
17:54 10.6 °F 3.1 °F 1023.9 in NW 27.8 mph 27.8 mph 60 % 0.0 in 0.0 W/m2 OVC
17:59 10.6 °F 3.1 °F 1023.9 in NW 27.8 mph 27.8 mph 60 % 0.0 in 0.0 W/m2 CLR
18:04 10.0 °F 2.6 °F 1023.9 in NNW 24.1 mph 24.1 mph 60 % 0.0 in 0.0 W/m2 CLR
18:09 10.0 °F 2.8 °F 1023.9 in North 42.6 mph 42.6 mph 61 % 0.0 in 0.0 W/m2 CLR
18:14 10.0 °F 2.8 °F 1023.9 in NNW 24.1 mph 24.1 mph 61 % 0.0 in 0.0 W/m2 CLR
18:20 10.0 °F 3.1 °F 1023.9 in North 37.0 mph 37.0 mph 62 % 0.0 in 0.0 W/m2 CLR
18:25 10.0 °F 3.1 °F 1023.9 in North 37.0 mph 37.0 mph 62 % 0.0 in 0.0 W/m2 CLR
18:30 10.0 °F 3.1 °F 1023.9 in NW 29.6 mph 29.6 mph 62 % 0.0 in 0.0 W/m2 CLR
18:35 9.4 °F 2.5 °F 1023.9 in NNW 29.6 mph 29.6 mph 62 % 0.0 in 0.0 W/m2 CLR
18:40 9.4 °F 2.5 °F 1023.9 in NW 35.2 mph 35.2 mph 62 % 0.0 in 0.0 W/m2 CLR
18:45 9.4 °F 2.9 °F 1024.3 in North 44.4 mph 44.4 mph 64 % 0.0 in 0.0 W/m2 CLR
18:50 9.4 °F 2.9 °F 1023.9 in NNW 37.0 mph 37.0 mph 64 % 0.0 in 0.0 W/m2 CLR
18:55 9.4 °F 3.2 °F 1023.9 in NNW 37.0 mph 37.0 mph 65 % 0.0 in 0.0 W/m2 CLR
19:00 9.4 °F 3.2 °F 1023.9 in NW 29.6 mph 29.6 mph 65 % 0.0 in 0.0 W/m2 CLR
19:05 9.4 °F 3.2 °F 1024.3 in NNW 33.3 mph 33.3 mph 65 % 0.0 in 0.0 W/m2 CLR
19:10 8.9 °F 2.9 °F 1024.3 in NNW 37.0 mph 37.0 mph 66 % 0.0 in 0.0 W/m2 CLR
19:20 8.9 °F 2.9 °F 1024.6 in NNW 32.2 mph 32.2 mph 66 % 0.0 in 0.0 W/m2 CLR
19:25 8.9 °F 2.9 °F 1024.6 in North 25.9 mph 25.9 mph 66 % 0.0 in 0.0 W/m2 CLR
19:30 8.9 °F 2.9 °F 1024.6 in NW 20.4 mph 20.4 mph 66 % 0.0 in 0.0 W/m2 CLR
19:40 8.3 °F 2.3 °F 1024.6 in NW 31.5 mph 31.5 mph 66 % 0.0 in 0.0 W/m2 CLR
19:45 8.3 °F 2.3 °F 1024.9 in NW 29.6 mph 29.6 mph 66 % 0.0 in 0.0 W/m2 CLR
19:50 8.3 °F 2.3 °F 1024.6 in WNW 20.4 mph 20.4 mph 66 % 0.0 in 0.0 W/m2 CLR
19:55 8.3 °F 2.3 °F 1024.6 in NW 22.5 mph 22.5 mph 66 % 0.0 in 0.0 W/m2 CLR
20:00 8.3 °F 2.3 °F 1024.6 in NW 31.5 mph 31.5 mph 66 % 0.0 in 0.0 W/m2 CLR
20:05 8.3 °F 2.3 °F 1024.9 in NW 29.6 mph 29.6 mph 66 % 0.0 in 0.0 W/m2 CLR
20:11 8.3 °F 2.3 °F 1024.6 in NW 25.9 mph 25.9 mph 66 % 0.0 in 0.0 W/m2 CLR
20:16 8.3 °F 2.6 °F 1024.9 in NNW 31.5 mph 31.5 mph 67 % 0.0 in 0.0 W/m2 CLR
20:21 8.3 °F 2.6 °F 1024.6 in NW 37.0 mph 37.0 mph 67 % 0.0 in 0.0 W/m2 CLR
20:26 7.8 °F 2.2 °F 1024.9 in NW 25.9 mph 25.9 mph 68 % 0.0 in 0.0 W/m2 CLR
20:31 7.8 °F 2.2 °F 1024.9 in NW 31.5 mph 31.5 mph 68 % 0.0 in 0.0 W/m2 CLR
20:36 7.8 °F 2.4 °F 1025.3 in NW 31.5 mph 31.5 mph 69 % 0.0 in 0.0 W/m2 CLR
20:41 7.8 °F 2.4 °F 1025.3 in NNW 35.2 mph 35.2 mph 69 % 0.0 in 0.0 W/m2 CLR
20:46 7.8 °F 2.7 °F 1024.9 in NW 35.2 mph 35.2 mph 70 % 0.0 in 0.0 W/m2 CLR
20:48 7.8 °F 2.7 °F 1024.9 in NW 35.2 mph 35.2 mph 70 % 0.0 in 0.0 W/m2 CLR
20:53 7.8 °F 2.7 °F 1025.3 in NW 37.0 mph 37.0 mph 70 % 0.0 in 0.0 W/m2 CLR
20:58 7.2 °F 2.3 °F 1025.3 in NW 33.3 mph 33.3 mph 71 % 0.0 in 0.0 W/m2 CLR
21:03 7.2 °F 2.3 °F 1025.3 in NW 31.5 mph 31.5 mph 71 % 0.0 in 0.0 W/m2 CLR
21:08 7.2 °F 2.5 °F 1025.3 in WNW 31.5 mph 31.5 mph 72 % 0.0 in 0.0 W/m2 CLR
21:13 7.2 °F 2.5 °F 1025.3 in NW 27.8 mph 27.8 mph 72 % 0.0 in 0.0 W/m2 CLR
21:18 7.2 °F 2.5 °F 1025.3 in NW 31.5 mph 31.5 mph 72 % 0.0 in 0.0 W/m2 CLR
21:23 7.2 °F 2.7 °F 1025.3 in NW 38.9 mph 38.9 mph 73 % 0.0 in 0.0 W/m2 CLR
21:28 7.2 °F 2.5 °F 1025.6 in NW 32.2 mph 32.2 mph 72 % 0.0 in 0.0 W/m2 CLR
21:33 7.2 °F 2.7 °F 1025.6 in NW 29.6 mph 29.6 mph 73 % 0.0 in 0.0 W/m2 CLR
21:38 7.2 °F 2.7 °F 1026.0 in NW 22.2 mph 22.2 mph 73 % 0.0 in 0.0 W/m2 CLR
21:43 7.2 °F 2.7 °F 1026.0 in NW 18.5 mph 18.5 mph 73 % 0.0 in 0.0 W/m2 CLR
21:48 6.7 °F 2.2 °F 1026.0 in NNW 18.5 mph 18.5 mph 73 % 0.0 in 0.0 W/m2 CLR
21:53 6.7 °F 2.2 °F 1026.0 in NW 25.9 mph 25.9 mph 73 % 0.0 in 0.0 W/m2 CLR
21:58 6.7 °F 2.2 °F 1026.0 in NW 24.1 mph 24.1 mph 73 % 0.0 in 0.0 W/m2 CLR
22:03 6.7 °F 2.2 °F 1026.0 in WNW 24.1 mph 24.1 mph 73 % 0.0 in 0.0 W/m2 CLR
22:08 6.7 °F 2.2 °F 1026.3 in NW 29.6 mph 29.6 mph 73 % 0.0 in 0.0 W/m2 CLR
22:13 6.7 °F 2.2 °F 1026.0 in NW 24.1 mph 24.1 mph 73 % 0.0 in 0.0 W/m2 CLR
22:18 6.7 °F 2.2 °F 1026.0 in NW 24.1 mph 24.1 mph 73 % 0.0 in 0.0 W/m2 CLR
22:23 6.7 °F 2.2 °F 1026.0 in NW 25.9 mph 25.9 mph 73 % 0.0 in 0.0 W/m2 CLR
22:28 6.7 °F 2.2 °F 1026.3 in NW 16.7 mph 16.7 mph 73 % 0.0 in 0.0 W/m2 CLR
22:33 6.7 °F 2.2 °F 1026.3 in NNW 20.9 mph 20.9 mph 73 % 0.0 in 0.0 W/m2 CLR
22:38 6.7 °F 2.3 °F 1026.0 in NNW 22.2 mph 22.2 mph 74 % 0.0 in 0.0 W/m2 CLR
22:43 6.7 °F 2.3 °F 1026.3 in NNW 29.6 mph 29.6 mph 74 % 0.0 in 0.0 W/m2 CLR
22:48 6.7 °F 2.3 °F 1026.0 in NW 20.4 mph 20.4 mph 74 % 0.0 in 0.0 W/m2 CLR
22:53 6.7 °F 2.6 °F 1026.3 in NW 31.5 mph 31.5 mph 75 % 0.0 in 0.0 W/m2 CLR
22:58 6.7 °F 2.6 °F 1026.0 in WNW 25.9 mph 25.9 mph 75 % 0.0 in 0.0 W/m2 CLR
23:03 6.1 °F 2.0 °F 1026.3 in NW 31.5 mph 31.5 mph 75 % 0.0 in 0.0 W/m2 CLR
23:08 6.1 °F 2.0 °F 1026.0 in NW 33.3 mph 33.3 mph 75 % 0.0 in 0.0 W/m2 CLR
23:13 6.7 °F 2.6 °F 1026.0 in NNW 25.9 mph 25.9 mph 75 % 0.0 in 0.0 W/m2 CLR
23:18 6.7 °F 2.6 °F 1026.0 in WNW 27.8 mph 27.8 mph 75 % 0.0 in 0.0 W/m2 CLR
23:24 6.1 °F 2.0 °F 1026.0 in NNW 22.2 mph 22.2 mph 75 % 0.0 in 0.0 W/m2 CLR
23:29 6.1 °F 2.0 °F 1026.0 in NW 27.8 mph 27.8 mph 75 % 0.0 in 0.0 W/m2 CLR
23:34 6.1 °F 2.0 °F 1026.0 in NW 29.6 mph 29.6 mph 75 % 0.0 in 0.0 W/m2 CLR
23:39 6.1 °F 2.0 °F 1026.0 in NW 29.6 mph 29.6 mph 75 % 0.0 in 0.0 W/m2 CLR
23:44 6.1 °F 2.0 °F 1026.0 in NW 27.4 mph 27.4 mph 75 % 0.0 in 0.0 W/m2 CLR
23:49 6.1 °F 1.8 °F 1025.6 in NW 22.2 mph 22.2 mph 74 % 0.0 in 0.0 W/m2 CLR
23:54 6.1 °F 2.0 °F 1026.0 in NNW 31.5 mph 31.5 mph 75 % 0.0 in 0.0 W/m2 CLR
23:59 6.1 °F 1.8 °F 1026.0 in NW 31.5 mph 31.5 mph 74 % 0.0 in 0.0 W/m2 CLR
Lo Temps de Massalio
Compliments of Weather Underground - 1.25 mb